createdAt,value
2018-05-09T00:01:20.954Z,3.33
2018-05-09T00:03:48.494Z,4.57
2018-05-09T00:06:16.773Z,5.13
2018-05-09T00:08:44.315Z,3.60
2018-05-09T00:11:11.842Z,5.20
2018-05-09T00:13:39.367Z,3.57
2018-05-09T00:16:06.889Z,7.77
2018-05-09T00:18:34.431Z,3.60
2018-05-09T00:21:02.055Z,8.03
2018-05-09T00:23:29.585Z,8.80
2018-05-09T00:25:57.893Z,4.37
2018-05-09T00:28:25.514Z,5.40
2018-05-09T00:30:53.790Z,3.40
2018-05-09T00:33:22.063Z,6.47
2018-05-09T00:35:50.335Z,4.47
2018-05-09T00:38:18.004Z,4.20
2018-05-09T00:40:46.370Z,5.47
2018-05-09T00:43:13.880Z,4.60
2018-05-09T00:45:41.423Z,5.07
2018-05-09T00:48:08.941Z,6.03
2018-05-09T00:50:36.474Z,5.03
2018-05-09T00:53:04.001Z,5.60
2018-05-09T00:55:31.528Z,7.30
2018-05-09T00:57:59.050Z,6.27
2018-05-09T01:00:26.564Z,4.20
2018-05-09T01:02:54.186Z,5.73
2018-05-09T01:05:21.726Z,5.63
2018-05-09T01:07:49.265Z,4.67
2018-05-09T01:10:17.108Z,3.63
2018-05-09T01:12:44.624Z,4.40
2018-05-09T01:15:12.166Z,5.43
2018-05-09T01:17:39.677Z,4.30
2018-05-09T01:20:07.200Z,4.60
2018-05-09T01:22:34.716Z,5.17
2018-05-09T01:25:02.263Z,6.73
2018-05-09T01:27:29.781Z,4.07
2018-05-09T01:29:58.200Z,4.63
2018-05-09T01:32:25.841Z,4.30
2018-05-09T01:34:53.373Z,5.87
2018-05-09T01:37:20.903Z,5.33
2018-05-09T01:39:48.510Z,7.97
2018-05-09T01:42:16.939Z,6.17
2018-05-09T01:44:44.468Z,6.03
2018-05-09T01:47:12.086Z,4.30
2018-05-09T01:49:39.608Z,5.77
2018-05-09T01:52:07.134Z,5.63
2018-05-09T01:54:34.658Z,5.57
2018-05-09T01:57:02.179Z,4.13
2018-05-09T01:59:29.714Z,4.13
2018-05-09T02:01:57.239Z,4.10
2018-05-09T02:04:24.757Z,5.27
2018-05-09T02:06:52.292Z,6.40
2018-05-09T02:09:19.978Z,4.60
2018-05-09T02:11:47.505Z,6.57
2018-05-09T02:14:15.780Z,4.70
2018-05-09T02:16:44.086Z,4.53
2018-05-09T02:19:11.603Z,7.33
2018-05-09T02:21:39.234Z,4.70
2018-05-09T02:24:06.755Z,5.00
2018-05-09T02:26:34.280Z,5.03
2018-05-09T02:29:02.562Z,5.80
2018-05-09T02:31:30.842Z,4.53
2018-05-09T02:33:59.150Z,4.67
2018-05-09T02:36:26.676Z,5.07
2018-05-09T02:38:54.247Z,5.07
2018-05-09T02:41:21.880Z,5.90
2018-05-09T02:43:49.540Z,5.07
2018-05-09T02:46:17.039Z,4.50
2018-05-09T02:48:44.575Z,7.30
2018-05-09T02:51:12.090Z,5.33
2018-05-09T02:53:39.600Z,7.00
2018-05-09T02:56:07.898Z,7.30
2018-05-09T02:58:35.533Z,4.53
2018-05-09T03:01:03.840Z,6.17
2018-05-09T03:03:31.372Z,4.73
2018-05-09T03:05:59.063Z,4.43
2018-05-09T03:08:26.595Z,6.80
2018-05-09T03:10:54.123Z,5.97
2018-05-09T03:13:21.653Z,5.67
2018-05-09T03:15:49.174Z,4.70
2018-05-09T03:18:17.541Z,7.63
2018-05-09T03:20:45.072Z,4.93
2018-05-09T03:23:12.589Z,5.63
2018-05-09T03:25:40.103Z,4.97
2018-05-09T03:28:07.677Z,5.40
2018-05-09T03:30:36.082Z,6.67
2018-05-09T03:33:03.620Z,5.57
2018-05-09T03:35:31.129Z,5.77
2018-05-09T03:37:58.647Z,7.23
2018-05-09T03:40:26.183Z,4.37
2018-05-09T03:42:54.487Z,5.10
2018-05-09T03:45:22.012Z,5.00
2018-05-09T03:47:49.525Z,6.93
2018-05-09T03:50:17.051Z,4.80
2018-05-09T03:52:44.584Z,5.00
2018-05-09T03:55:12.122Z,5.23
2018-05-09T03:57:39.779Z,8.00
2018-05-09T04:00:07.304Z,6.97
2018-05-09T04:02:46.605Z,5.40
2018-05-09T04:05:27.098Z,5.77
2018-05-09T04:08:06.434Z,7.17
2018-05-09T04:10:34.095Z,5.20
2018-05-09T04:13:01.626Z,5.97
2018-05-09T04:15:29.905Z,7.57
2018-05-09T04:17:57.462Z,6.03
2018-05-09T04:20:25.046Z,6.87
2018-05-09T04:22:52.560Z,4.77
2018-05-09T04:25:20.834Z,4.80
2018-05-09T04:27:49.859Z,7.20
2018-05-09T04:30:17.444Z,5.00
2018-05-09T04:32:45.095Z,4.97
2018-05-09T04:35:12.627Z,5.10
2018-05-09T04:37:40.149Z,5.50
2018-05-09T04:40:07.668Z,5.20
2018-05-09T04:42:35.198Z,5.40
2018-05-09T04:45:03.493Z,6.63
2018-05-09T04:47:31.062Z,5.23
2018-05-09T04:49:58.640Z,7.67
2018-05-09T04:52:26.229Z,7.47
2018-05-09T04:54:53.765Z,5.93
2018-05-09T04:57:21.283Z,7.93
2018-05-09T04:59:48.819Z,5.10
2018-05-09T05:02:17.107Z,5.57
2018-05-09T05:04:45.581Z,7.80
2018-05-09T05:07:13.865Z,7.40
2018-05-09T05:09:42.137Z,7.13
2018-05-09T05:12:09.721Z,8.93
2018-05-09T05:14:37.241Z,5.67
2018-05-09T05:17:05.535Z,6.47
2018-05-09T05:19:33.937Z,7.53
2018-05-09T05:22:01.466Z,6.70
2018-05-09T05:24:29.857Z,8.07
2018-05-09T05:26:57.456Z,8.13
2018-05-09T05:29:24.958Z,7.70
2018-05-09T05:31:52.467Z,5.93
2018-05-09T05:34:20.243Z,5.93
2018-05-09T05:36:47.695Z,7.03
2018-05-09T05:39:15.213Z,6.47
2018-05-09T05:41:42.726Z,7.93
2018-05-09T05:44:10.325Z,7.97
2018-05-09T05:46:37.843Z,8.80
2018-05-09T05:49:05.367Z,9.40
2018-05-09T05:51:32.922Z,5.93
2018-05-09T05:54:00.453Z,6.87
2018-05-09T05:56:28.825Z,7.90
2018-05-09T05:58:57.221Z,5.70
2018-05-09T06:01:24.761Z,6.67
2018-05-09T06:03:52.288Z,6.30
2018-05-09T06:06:19.881Z,6.07
2018-05-09T06:08:47.402Z,8.20
2018-05-09T06:11:14.940Z,6.07
2018-05-09T06:13:42.460Z,5.80
2018-05-09T06:16:10.152Z,7.73
2018-05-09T06:18:37.692Z,10.07
2018-05-09T06:21:05.224Z,11.23
2018-05-09T06:23:32.921Z,8.40
2018-05-09T06:26:00.432Z,6.13
2018-05-09T06:28:27.955Z,6.20
2018-05-09T06:30:55.653Z,7.47
2018-05-09T06:33:23.146Z,7.67
2018-05-09T06:35:50.670Z,6.90
2018-05-09T06:38:18.185Z,7.03
2018-05-09T06:40:45.702Z,7.10
2018-05-09T06:43:13.234Z,5.90
2018-05-09T06:45:40.762Z,8.63
2018-05-09T06:48:08.290Z,7.87
2018-05-09T06:50:35.820Z,6.53
2018-05-09T06:53:03.382Z,6.10
2018-05-09T06:55:30.894Z,10.00
2018-05-09T06:57:58.408Z,7.40
2018-05-09T07:00:26.708Z,8.87
2018-05-09T07:02:54.244Z,5.60
2018-05-09T07:05:21.755Z,7.00
2018-05-09T07:07:49.277Z,8.17
2018-05-09T07:10:17.567Z,5.43
2018-05-09T07:12:45.110Z,6.03
2018-05-09T07:15:12.625Z,8.20
2018-05-09T07:17:40.149Z,5.60
2018-05-09T07:20:07.692Z,7.33
2018-05-09T07:22:35.205Z,6.83
2018-05-09T07:25:02.742Z,6.87
2018-05-09T07:27:30.253Z,9.40
2018-05-09T07:29:57.808Z,5.60
2018-05-09T07:32:26.085Z,5.80
2018-05-09T07:34:54.547Z,7.93
2018-05-09T07:37:22.061Z,7.90
2018-05-09T07:39:49.569Z,5.37
2018-05-09T07:42:17.188Z,4.93
2018-05-09T07:44:45.600Z,6.87
2018-05-09T07:47:13.117Z,5.87
2018-05-09T07:49:40.631Z,10.47
2018-05-09T07:52:08.155Z,6.60
2018-05-09T07:54:35.715Z,5.40
2018-05-09T07:57:03.247Z,5.30
2018-05-09T07:59:30.759Z,6.70
2018-05-09T08:01:59.051Z,4.87
2018-05-09T08:04:27.354Z,6.83
2018-05-09T08:06:54.877Z,4.97
2018-05-09T08:09:22.559Z,5.10
2018-05-09T08:11:50.076Z,4.97
2018-05-09T08:14:17.610Z,7.13
2018-05-09T08:16:45.132Z,7.80
2018-05-09T08:19:12.648Z,9.43
2018-05-09T08:21:40.178Z,7.97
2018-05-09T08:24:07.702Z,9.10
2018-05-09T08:26:35.226Z,9.97
2018-05-09T08:29:02.793Z,7.17
2018-05-09T08:31:30.308Z,4.53
2018-05-09T08:33:57.967Z,6.23
2018-05-09T08:36:25.503Z,6.10
2018-05-09T08:38:53.021Z,5.17
2018-05-09T08:41:20.534Z,6.30
2018-05-09T08:43:48.082Z,6.63
2018-05-09T08:46:16.357Z,4.40
2018-05-09T08:48:43.882Z,5.73
2018-05-09T08:51:12.187Z,4.63
2018-05-09T08:53:39.710Z,5.67
2018-05-09T08:56:07.238Z,4.23
2018-05-09T08:58:34.763Z,5.73
2018-05-09T09:01:02.309Z,4.37
2018-05-09T09:03:30.594Z,8.43
2018-05-09T09:05:58.106Z,5.17
2018-05-09T09:08:25.640Z,6.00
2018-05-09T09:10:53.196Z,7.07
2018-05-09T09:13:20.734Z,5.50
2018-05-09T09:15:48.254Z,6.07
2018-05-09T09:18:16.545Z,6.23
2018-05-09T09:20:44.855Z,5.40
2018-05-09T09:23:12.376Z,6.40
2018-05-09T09:25:39.916Z,6.73
2018-05-09T09:28:07.595Z,7.90
2018-05-09T09:30:35.897Z,5.97
2018-05-09T09:33:03.456Z,6.60
2018-05-09T09:35:30.994Z,6.27
2018-05-09T09:37:58.572Z,6.37
2018-05-09T09:40:26.118Z,6.50
2018-05-09T09:42:54.536Z,6.10
2018-05-09T09:45:22.062Z,4.40
2018-05-09T09:47:50.342Z,5.60
2018-05-09T09:50:18.622Z,5.83
2018-05-09T09:52:46.184Z,7.60
2018-05-09T09:55:13.835Z,7.80
2018-05-09T09:57:41.400Z,8.23
2018-05-09T10:00:09.162Z,6.13
2018-05-09T10:02:36.701Z,4.70
2018-05-09T10:05:04.994Z,6.43
2018-05-09T10:07:32.498Z,4.53
2018-05-09T10:10:00.122Z,3.70
2018-05-09T10:12:27.634Z,4.33
2018-05-09T10:14:55.157Z,4.97
2018-05-09T10:17:22.694Z,5.73
2018-05-09T10:19:50.222Z,5.87
2018-05-09T10:22:17.732Z,4.30
2018-05-09T10:24:45.256Z,4.27
2018-05-09T10:27:13.545Z,6.33
2018-05-09T10:29:41.076Z,4.77
2018-05-09T10:32:08.595Z,4.47
2018-05-09T10:34:36.116Z,5.53
2018-05-09T10:37:03.639Z,9.03
2018-05-09T10:39:31.156Z,7.30
2018-05-09T10:41:58.677Z,5.73
2018-05-09T10:44:26.983Z,4.30
2018-05-09T10:46:54.514Z,6.67
2018-05-09T10:49:22.050Z,3.97
2018-05-09T10:51:49.584Z,3.47
2018-05-09T10:54:17.890Z,7.80
2018-05-09T10:56:46.214Z,4.07
2018-05-09T10:59:13.746Z,3.70
2018-05-09T11:01:42.040Z,6.80
2018-05-09T11:04:09.576Z,6.33
2018-05-09T11:06:37.108Z,5.27
2018-05-09T11:09:05.377Z,3.67
2018-05-09T11:11:32.912Z,6.87
2018-05-09T11:14:00.534Z,3.47
2018-05-09T11:16:28.833Z,6.70
2018-05-09T11:18:56.337Z,3.07
2018-05-09T11:21:23.851Z,5.40
2018-05-09T11:23:51.371Z,5.37
2018-05-09T11:26:19.721Z,7.67
2018-05-09T11:28:47.238Z,4.00
2018-05-09T11:31:14.783Z,3.10
2018-05-09T11:33:43.053Z,6.33
2018-05-09T11:36:11.374Z,5.37
2018-05-09T11:38:38.892Z,5.87
2018-05-09T11:41:06.412Z,3.57
2018-05-09T11:43:34.706Z,5.40
2018-05-09T11:46:03.075Z,6.37
2018-05-09T11:48:30.594Z,6.73
2018-05-09T11:50:58.112Z,3.43
2018-05-09T11:53:26.402Z,6.07
2018-05-09T11:55:53.978Z,3.47
2018-05-09T11:58:21.508Z,5.43
2018-05-09T12:00:49.821Z,5.20
2018-05-09T12:03:17.340Z,3.50
2018-05-09T12:05:44.878Z,4.93
2018-05-09T12:08:13.190Z,6.77
2018-05-09T12:10:40.842Z,8.60
2018-05-09T12:13:08.298Z,8.17
2018-05-09T12:15:36.584Z,6.60
2018-05-09T12:18:04.118Z,4.17
2018-05-09T12:20:31.698Z,6.30
2018-05-09T12:23:00.039Z,5.60
2018-05-09T12:25:27.752Z,4.97
2018-05-09T12:27:55.304Z,7.70
2018-05-09T12:30:22.826Z,6.50
2018-05-09T12:32:51.106Z,8.53
2018-05-09T12:35:18.638Z,5.70
2018-05-09T12:37:46.160Z,7.37
2018-05-09T12:40:13.720Z,4.50
2018-05-09T12:42:41.248Z,5.60
2018-05-09T12:45:09.536Z,3.80
2018-05-09T12:47:37.831Z,6.10
2018-05-09T12:50:05.362Z,4.70
2018-05-09T12:52:32.885Z,3.80
2018-05-09T12:55:00.588Z,4.63
2018-05-09T12:57:28.872Z,4.87
2018-05-09T12:59:56.517Z,6.20
2018-05-09T13:02:24.821Z,4.27
2018-05-09T13:04:52.350Z,3.93
2018-05-09T13:07:19.961Z,4.37
2018-05-09T13:09:47.431Z,5.20
2018-05-09T13:12:14.986Z,4.17
2018-05-09T13:14:42.523Z,6.30
2018-05-09T13:17:10.058Z,6.37
2018-05-09T13:19:37.648Z,7.17
2018-05-09T13:22:05.890Z,5.53
2018-05-09T13:24:34.300Z,6.73
2018-05-09T13:27:01.817Z,5.57
2018-05-09T13:29:30.095Z,4.97
2018-05-09T13:31:58.450Z,5.57
2018-05-09T13:34:25.970Z,7.70
2018-05-09T13:36:53.498Z,6.63
2018-05-09T13:39:21.778Z,4.10
2018-05-09T13:41:49.298Z,4.17
2018-05-09T13:44:16.842Z,6.00
2018-05-09T13:46:45.130Z,6.10
2018-05-09T13:49:12.735Z,9.10
2018-05-09T13:51:40.246Z,8.43
2018-05-09T13:54:08.680Z,4.93
2018-05-09T13:56:36.218Z,5.17
2018-05-09T13:59:04.513Z,8.17
2018-05-09T14:01:32.042Z,6.23
2018-05-09T14:03:59.561Z,6.37
2018-05-09T14:06:27.212Z,4.90
2018-05-09T14:08:54.743Z,8.27
2018-05-09T14:11:22.287Z,6.27
2018-05-09T14:13:49.816Z,7.20
2018-05-09T14:16:17.360Z,8.30
2018-05-09T14:18:44.895Z,11.67
2018-05-09T14:21:12.419Z,10.63
2018-05-09T14:23:40.724Z,11.00
2018-05-09T14:26:08.253Z,8.33
2018-05-09T14:28:35.789Z,7.83
2018-05-09T14:31:03.313Z,9.83
2018-05-09T14:33:30.840Z,8.17
2018-05-09T14:35:58.499Z,8.40
2018-05-09T14:38:26.008Z,6.07
2018-05-09T14:40:53.536Z,12.73
2018-05-09T14:43:21.055Z,8.67
2018-05-09T14:45:48.583Z,10.27
2018-05-09T14:48:16.099Z,10.63
2018-05-09T14:50:43.620Z,8.00
2018-05-09T14:53:11.145Z,10.27
2018-05-09T14:55:38.725Z,7.27
2018-05-09T14:58:06.262Z,12.07
2018-05-09T15:00:33.783Z,8.63
2018-05-09T15:03:02.068Z,10.13
2018-05-09T15:05:29.588Z,8.77
2018-05-09T15:07:57.115Z,8.57
2018-05-09T15:10:24.641Z,11.17
2018-05-09T15:12:52.174Z,5.90
2018-05-09T15:15:19.713Z,8.70
2018-05-09T15:17:47.242Z,6.93
2018-05-09T15:20:14.763Z,11.27
2018-05-09T15:22:42.290Z,6.93
2018-05-09T15:25:09.805Z,7.70
2018-05-09T15:27:37.423Z,9.23
2018-05-09T15:30:05.707Z,9.97
2018-05-09T15:32:33.997Z,11.00
2018-05-09T15:35:01.508Z,8.07
2018-05-09T15:37:29.050Z,13.47
2018-05-09T15:39:56.607Z,7.83
2018-05-09T15:42:24.151Z,7.07
2018-05-09T15:44:51.688Z,7.73
2018-05-09T15:47:19.214Z,12.53
2018-05-09T15:49:46.895Z,8.33
2018-05-09T15:52:14.459Z,9.20
2018-05-09T15:54:42.863Z,12.07
2018-05-09T15:57:10.390Z,6.37
2018-05-09T15:59:38.690Z,11.07
2018-05-09T16:02:06.328Z,15.73
2018-05-09T16:04:34.614Z,14.07
2018-05-09T16:07:02.911Z,12.40
2018-05-09T16:09:30.456Z,10.13
2018-05-09T16:11:58.088Z,11.37
2018-05-09T16:14:25.643Z,12.73
2018-05-09T16:16:53.169Z,7.07
2018-05-09T16:19:20.720Z,8.97
2018-05-09T16:21:48.230Z,13.20
2018-05-09T16:24:16.524Z,9.07
2018-05-09T16:26:44.049Z,7.57
2018-05-09T16:29:13.072Z,8.60
2018-05-09T16:31:41.383Z,9.53
2018-05-09T16:34:09.035Z,8.40
2018-05-09T16:36:36.560Z,14.67
2018-05-09T16:39:04.100Z,9.43
2018-05-09T16:41:31.610Z,5.30
2018-05-09T16:43:59.184Z,7.80
2018-05-09T16:46:26.742Z,6.90
2018-05-09T16:48:54.278Z,6.50
2018-05-09T16:51:21.790Z,9.83
2018-05-09T16:53:49.308Z,11.27
2018-05-09T16:56:16.834Z,8.20
2018-05-09T16:58:44.593Z,8.13
2018-05-09T17:01:12.880Z,9.30
2018-05-09T17:03:40.444Z,9.17
2018-05-09T17:06:08.167Z,12.03
2018-05-09T17:08:35.684Z,8.10
2018-05-09T17:11:03.218Z,8.03
2018-05-09T17:13:30.774Z,8.50
2018-05-09T17:15:59.081Z,10.87
2018-05-09T17:18:26.609Z,8.60
2018-05-09T17:20:54.184Z,13.43
2018-05-09T17:23:22.158Z,5.90
2018-05-09T17:25:49.689Z,9.07
2018-05-09T17:28:18.098Z,6.83
2018-05-09T17:30:45.706Z,12.53
2018-05-09T17:33:13.258Z,11.43
2018-05-09T17:35:40.790Z,6.27
2018-05-09T17:38:08.328Z,7.27
2018-05-09T17:40:35.998Z,10.27
2018-05-09T17:43:03.535Z,10.27
2018-05-09T17:45:31.129Z,9.53
2018-05-09T17:47:58.668Z,7.57
2018-05-09T17:50:26.207Z,11.67
2018-05-09T17:52:53.893Z,6.10
2018-05-09T17:55:21.604Z,6.27
2018-05-09T17:57:49.219Z,8.70
2018-05-09T18:00:16.735Z,6.80
2018-05-09T18:02:45.051Z,6.03
2018-05-09T18:05:12.581Z,10.53
2018-05-09T18:07:40.095Z,16.03
2018-05-09T18:10:07.602Z,11.10
2018-05-09T18:12:35.950Z,9.67
2018-05-09T18:15:03.465Z,9.97
2018-05-09T18:17:30.987Z,8.73
2018-05-09T18:19:59.298Z,11.27
2018-05-09T18:22:26.824Z,7.77
2018-05-09T18:24:54.704Z,7.63
2018-05-09T18:27:22.241Z,9.77
2018-05-09T18:29:50.658Z,9.00
2018-05-09T18:32:18.157Z,8.40
2018-05-09T18:34:45.823Z,6.73
2018-05-09T18:37:13.358Z,8.13
2018-05-09T18:39:40.901Z,11.13
2018-05-09T18:42:08.422Z,12.17
2018-05-09T18:44:36.709Z,9.70
2018-05-09T18:47:04.250Z,10.13
2018-05-09T18:49:31.757Z,14.73
2018-05-09T18:51:59.290Z,9.10
2018-05-09T18:54:26.817Z,13.20
2018-05-09T18:56:54.428Z,10.10
2018-05-09T18:59:21.985Z,7.77
2018-05-09T19:01:49.510Z,11.30
2018-05-09T19:04:17.817Z,9.70
2018-05-09T19:06:45.346Z,7.47
2018-05-09T19:09:12.881Z,10.40
2018-05-09T19:11:40.567Z,13.73
2018-05-09T19:14:08.099Z,7.50
2018-05-09T19:16:35.631Z,11.53
2018-05-09T19:19:03.166Z,10.97
2018-05-09T19:21:30.725Z,14.60
2018-05-09T19:23:58.236Z,14.80
2018-05-09T19:26:25.778Z,16.10
2018-05-09T19:28:53.324Z,12.97
2018-05-09T19:31:20.848Z,12.77
2018-05-09T19:33:48.462Z,11.93
2018-05-09T19:36:16.143Z,14.47
2018-05-09T19:38:44.485Z,11.23
2018-05-09T19:41:12.029Z,12.57
2018-05-09T19:43:39.560Z,11.10
2018-05-09T19:46:07.365Z,10.93
2018-05-09T19:48:34.905Z,12.10
2018-05-09T19:51:02.485Z,10.03
2018-05-09T19:53:30.054Z,10.50
2018-05-09T19:55:57.653Z,10.57
2018-05-09T19:58:26.058Z,10.57
2018-05-09T20:00:53.585Z,11.37
2018-05-09T20:03:21.897Z,9.73
2018-05-09T20:05:49.518Z,10.83
2018-05-09T20:08:17.814Z,13.23
2018-05-09T20:10:45.326Z,9.43
2018-05-09T20:13:13.708Z,10.63
2018-05-09T20:15:42.021Z,14.13
2018-05-09T20:18:09.543Z,13.87
2018-05-09T20:20:37.070Z,8.73
2018-05-09T20:23:04.594Z,13.43
2018-05-09T20:25:32.118Z,8.67
2018-05-09T20:27:59.633Z,8.33
2018-05-09T20:30:32.756Z,8.63
2018-05-09T20:33:00.294Z,8.50
2018-05-09T20:35:27.820Z,11.63
2018-05-09T20:37:55.442Z,11.10
2018-05-09T20:40:23.872Z,7.17
2018-05-09T20:42:51.587Z,9.17
2018-05-09T20:45:19.898Z,10.37
2018-05-09T20:47:47.508Z,7.23
2018-05-09T20:50:14.991Z,8.93
2018-05-09T20:52:43.267Z,11.03
2018-05-09T20:55:22.628Z,8.73
2018-05-09T20:57:50.163Z,11.97
2018-05-09T21:00:17.710Z,12.30
2018-05-09T21:02:46.010Z,13.33
2018-05-09T21:05:14.294Z,9.70
2018-05-09T21:07:54.434Z,12.20
2018-05-09T21:10:22.847Z,13.03
2018-05-09T21:12:50.584Z,12.70
2018-05-09T21:15:18.880Z,13.03
2018-05-09T21:17:46.382Z,7.57
2018-05-09T21:20:13.961Z,10.47
2018-05-09T21:22:41.605Z,10.17
2018-05-09T21:25:10.046Z,11.30
2018-05-09T21:27:37.646Z,12.50
2018-05-09T21:30:05.149Z,9.63
2018-05-09T21:32:32.668Z,13.93
2018-05-09T21:35:01.080Z,9.80
2018-05-09T21:37:28.620Z,10.53
2018-05-09T21:39:56.895Z,8.37
2018-05-09T21:42:25.177Z,9.17
2018-05-09T21:44:53.481Z,13.13
2018-05-09T21:47:21.009Z,11.90
2018-05-09T21:49:48.542Z,12.03
2018-05-09T21:52:16.079Z,13.23
2018-05-09T21:54:43.603Z,12.70
2018-05-09T21:57:11.159Z,13.33
2018-05-09T21:59:38.704Z,10.93
2018-05-09T22:02:06.239Z,10.17
2018-05-09T22:04:34.530Z,10.70
2018-05-09T22:07:02.071Z,16.20
2018-05-09T22:09:29.601Z,11.20
2018-05-09T22:11:57.142Z,9.70
2018-05-09T22:14:24.667Z,11.03
2018-05-09T22:16:52.213Z,12.07
2018-05-09T22:19:20.520Z,12.93
2018-05-09T22:21:48.061Z,14.20
2018-05-09T22:24:15.575Z,13.10
2018-05-09T22:26:43.110Z,16.70
2018-05-09T22:29:10.731Z,14.27
2018-05-09T22:31:38.209Z,14.00
2018-05-09T22:34:06.520Z,9.77
2018-05-09T22:36:34.053Z,10.33
2018-05-09T22:39:01.586Z,14.03
2018-05-09T22:41:29.869Z,11.20
2018-05-09T22:43:57.439Z,11.00
2018-05-09T22:46:24.995Z,9.20
2018-05-09T22:48:53.269Z,8.17
2018-05-09T22:51:21.552Z,12.03
2018-05-09T22:53:49.833Z,8.43
2018-05-09T22:56:17.353Z,10.43
2018-05-09T22:58:44.893Z,7.70
2018-05-09T23:01:12.591Z,8.50
2018-05-09T23:03:40.894Z,12.17
2018-05-09T23:06:08.537Z,9.57
2018-05-09T23:08:36.845Z,10.93
2018-05-09T23:11:04.393Z,11.87
2018-05-09T23:13:31.916Z,9.23
2018-05-09T23:16:00.214Z,8.83
2018-05-09T23:18:27.780Z,10.43
2018-05-09T23:20:55.308Z,9.70
2018-05-09T23:23:23.592Z,10.33
2018-05-09T23:25:51.900Z,10.70
2018-05-09T23:28:19.628Z,14.67
2018-05-09T23:30:47.170Z,11.00
2018-05-09T23:33:14.710Z,8.83
2018-05-09T23:35:42.224Z,9.40
2018-05-09T23:38:09.743Z,10.20
2018-05-09T23:40:37.331Z,11.67
2018-05-09T23:43:04.828Z,9.97
2018-05-09T23:45:32.345Z,9.97
2018-05-09T23:48:00.625Z,11.40
2018-05-09T23:50:28.935Z,9.77
2018-05-09T23:52:56.564Z,11.17
2018-05-09T23:55:24.978Z,10.27
2018-05-09T23:57:52.498Z,10.50
